createdAt,value
2019-02-24T00:00:45.689Z,3.83
2019-02-24T00:01:28.972Z,3.62
2019-02-24T00:02:07.644Z,3.70
2019-02-24T00:02:47.167Z,3.17
2019-02-24T00:03:26.140Z,3.40
2019-02-24T00:04:04.756Z,3.58
2019-02-24T00:04:44.459Z,3.33
2019-02-24T00:05:23.057Z,3.10
2019-02-24T00:06:01.726Z,3.15
2019-02-24T00:06:40.435Z,3.97
2019-02-24T00:07:19.273Z,3.42
2019-02-24T00:07:57.987Z,3.67
2019-02-24T00:08:36.668Z,3.40
2019-02-24T00:09:15.685Z,3.40
2019-02-24T00:09:54.831Z,3.70
2019-02-24T00:10:34.169Z,2.87
2019-02-24T00:11:13.498Z,3.05
2019-02-24T00:11:52.356Z,3.17
2019-02-24T00:12:31.084Z,3.60
2019-02-24T00:13:09.778Z,3.40
2019-02-24T00:13:48.391Z,3.10
2019-02-24T00:14:27.279Z,3.52
2019-02-24T00:15:05.887Z,3.67
2019-02-24T00:15:45.131Z,3.45
2019-02-24T00:16:24.335Z,3.40
2019-02-24T00:17:03.753Z,3.65
2019-02-24T00:17:44.561Z,3.50
2019-02-24T00:18:24.073Z,3.05
2019-02-24T00:19:03.827Z,3.35
2019-02-24T00:19:43.057Z,3.42
2019-02-24T00:20:22.271Z,3.98
2019-02-24T00:21:01.048Z,3.30
2019-02-24T00:21:39.703Z,3.75
2019-02-24T00:22:18.403Z,3.77
2019-02-24T00:22:57.091Z,3.90
2019-02-24T00:23:36.078Z,3.50
2019-02-24T00:24:15.046Z,3.30
2019-02-24T00:24:54.292Z,3.40
2019-02-24T00:25:33.311Z,3.98
2019-02-24T00:26:12.503Z,4.00
2019-02-24T00:26:51.185Z,3.47
2019-02-24T00:27:30.156Z,3.27
2019-02-24T00:28:10.322Z,3.67
2019-02-24T00:28:48.945Z,3.72
2019-02-24T00:29:27.630Z,3.80
2019-02-24T00:30:06.433Z,3.42
2019-02-24T00:30:45.441Z,3.87
2019-02-24T00:31:24.603Z,3.50
2019-02-24T00:32:03.687Z,3.25
2019-02-24T00:32:42.411Z,3.83
2019-02-24T00:33:21.254Z,3.75
2019-02-24T00:34:00.462Z,3.92
2019-02-24T00:34:39.156Z,3.60
2019-02-24T00:35:17.851Z,3.70
2019-02-24T00:35:56.960Z,3.70
2019-02-24T00:36:36.192Z,4.17
2019-02-24T00:37:14.896Z,4.40
2019-02-24T00:37:53.594Z,4.37
2019-02-24T00:38:32.268Z,3.83
2019-02-24T00:39:11.781Z,4.10
2019-02-24T00:39:50.557Z,3.70
2019-02-24T00:40:29.442Z,3.65
2019-02-24T00:41:08.396Z,4.08
2019-02-24T00:41:47.779Z,3.70
2019-02-24T00:42:26.873Z,4.35
2019-02-24T00:43:05.953Z,4.08
2019-02-24T00:43:44.855Z,4.45
2019-02-24T00:44:25.512Z,4.33
2019-02-24T00:45:04.211Z,4.17
2019-02-24T00:45:43.717Z,4.60
2019-02-24T00:46:22.435Z,4.30
2019-02-24T00:47:01.033Z,4.05
2019-02-24T00:47:39.660Z,3.90
2019-02-24T00:48:18.850Z,4.15
2019-02-24T00:48:57.911Z,4.20
2019-02-24T00:49:37.052Z,4.10
2019-02-24T00:50:16.059Z,4.33
2019-02-24T00:50:55.360Z,3.95
2019-02-24T00:51:34.742Z,4.00
2019-02-24T00:52:14.260Z,4.03
2019-02-24T00:52:52.991Z,4.08
2019-02-24T00:53:31.750Z,4.33
2019-02-24T00:54:10.551Z,4.12
2019-02-24T00:54:49.327Z,4.05
2019-02-24T00:55:28.034Z,4.10
2019-02-24T00:56:06.764Z,4.35
2019-02-24T00:56:45.505Z,4.10
2019-02-24T00:57:24.224Z,3.55
2019-02-24T00:58:02.983Z,4.03
2019-02-24T00:58:43.041Z,3.93
2019-02-24T00:59:22.043Z,4.10
2019-02-24T01:00:00.651Z,4.08
2019-02-24T01:00:39.584Z,3.90
2019-02-24T01:01:18.327Z,3.65
2019-02-24T01:01:57.023Z,3.70
2019-02-24T01:02:35.735Z,3.67
2019-02-24T01:03:14.370Z,4.10
2019-02-24T01:03:53.235Z,4.50
2019-02-24T01:04:32.004Z,3.77
2019-02-24T01:05:10.818Z,3.50
2019-02-24T01:05:49.556Z,4.20
2019-02-24T01:06:28.347Z,4.62
2019-02-24T01:07:07.243Z,3.95
2019-02-24T01:07:46.027Z,3.60
2019-02-24T01:08:24.905Z,4.10
2019-02-24T01:09:03.607Z,3.90
2019-02-24T01:09:42.398Z,4.25
2019-02-24T01:10:21.203Z,3.35
2019-02-24T01:11:00.009Z,4.37
2019-02-24T01:11:38.796Z,4.10
2019-02-24T01:12:17.586Z,4.28
2019-02-24T01:12:56.590Z,3.72
2019-02-24T01:13:35.288Z,3.60
2019-02-24T01:14:15.078Z,4.40
2019-02-24T01:14:53.715Z,3.75
2019-02-24T01:15:32.322Z,4.80
2019-02-24T01:16:11.150Z,4.15
2019-02-24T01:16:50.707Z,3.75
2019-02-24T01:17:29.481Z,3.85
2019-02-24T01:18:08.178Z,4.30
2019-02-24T01:18:46.911Z,3.98
2019-02-24T01:19:25.602Z,4.05
2019-02-24T01:20:04.445Z,4.28
2019-02-24T01:20:43.191Z,4.23
2019-02-24T01:21:21.978Z,4.12
2019-02-24T01:22:00.790Z,4.15
2019-02-24T01:22:39.972Z,3.70
2019-02-24T01:23:18.639Z,3.50
2019-02-24T01:23:57.325Z,4.00
2019-02-24T01:24:36.019Z,3.90
2019-02-24T01:25:14.718Z,3.75
2019-02-24T01:25:53.388Z,3.67
2019-02-24T01:26:32.302Z,3.90
2019-02-24T01:27:12.647Z,3.70
2019-02-24T01:27:51.561Z,4.20
2019-02-24T01:28:30.773Z,3.80
2019-02-24T01:29:10.127Z,4.20
2019-02-24T01:29:49.422Z,4.37
2019-02-24T01:30:28.666Z,4.15
2019-02-24T01:31:08.002Z,4.08
2019-02-24T01:31:46.696Z,3.50
2019-02-24T01:32:25.352Z,3.92
2019-02-24T01:33:04.043Z,3.47
2019-02-24T01:33:42.652Z,4.30
2019-02-24T01:34:21.851Z,3.22
2019-02-24T01:35:01.393Z,4.00
2019-02-24T01:35:40.293Z,4.00
2019-02-24T01:36:19.588Z,4.05
2019-02-24T01:36:58.280Z,4.45
2019-02-24T01:37:37.862Z,4.10
2019-02-24T01:38:17.172Z,3.92
2019-02-24T01:38:56.318Z,4.05
2019-02-24T01:39:34.946Z,4.35
2019-02-24T01:40:13.707Z,3.72
2019-02-24T01:40:52.410Z,3.85
2019-02-24T01:41:31.118Z,3.50
2019-02-24T01:42:10.319Z,3.90
2019-02-24T01:42:49.834Z,3.92
2019-02-24T01:43:29.681Z,4.05
2019-02-24T01:44:08.311Z,3.87
2019-02-24T01:44:47.677Z,4.03
2019-02-24T01:45:26.439Z,3.80
2019-02-24T01:46:05.348Z,4.65
2019-02-24T01:46:44.270Z,4.50
2019-02-24T01:47:22.967Z,4.03
2019-02-24T01:48:01.760Z,4.65
2019-02-24T01:48:40.578Z,4.60
2019-02-24T01:49:19.287Z,4.47
2019-02-24T01:49:57.915Z,3.87
2019-02-24T01:50:37.052Z,3.60
2019-02-24T01:51:15.777Z,4.30
2019-02-24T01:51:54.753Z,4.17
2019-02-24T01:52:33.934Z,4.50
2019-02-24T01:53:13.205Z,3.92
2019-02-24T01:53:52.254Z,3.80
2019-02-24T01:54:31.747Z,4.35
2019-02-24T01:55:10.458Z,4.20
2019-02-24T01:55:49.859Z,4.70
2019-02-24T01:56:30.067Z,4.03
2019-02-24T01:57:08.800Z,4.87
2019-02-24T01:57:47.518Z,4.37
2019-02-24T01:58:34.577Z,4.10
2019-02-24T01:59:07.030Z,4.55
2019-02-24T01:59:46.496Z,4.17
2019-02-24T02:00:25.211Z,4.40
2019-02-24T02:01:04.240Z,4.20
2019-02-24T02:01:43.741Z,5.03
2019-02-24T02:02:23.064Z,4.28
2019-02-24T02:03:02.464Z,4.53
2019-02-24T02:03:41.223Z,4.65
2019-02-24T02:04:20.011Z,4.58
2019-02-24T02:04:58.773Z,4.90
2019-02-24T02:05:37.423Z,4.55
2019-02-24T02:06:16.060Z,4.83
2019-02-24T02:06:54.838Z,4.25
2019-02-24T02:07:34.312Z,4.87
2019-02-24T02:08:13.339Z,4.85
2019-02-24T02:08:52.842Z,5.03
2019-02-24T02:09:32.321Z,5.35
2019-02-24T02:10:11.063Z,4.62
2019-02-24T02:10:50.702Z,4.15
2019-02-24T02:11:30.064Z,4.28
2019-02-24T02:12:08.729Z,4.70
2019-02-24T02:12:47.388Z,5.55
2019-02-24T02:13:26.109Z,4.50
2019-02-24T02:14:05.208Z,4.50
2019-02-24T02:14:43.939Z,5.00
2019-02-24T02:15:22.690Z,4.80
2019-02-24T02:16:02.334Z,4.55
2019-02-24T02:16:41.332Z,5.33
2019-02-24T02:17:19.949Z,4.72
2019-02-24T02:17:58.562Z,4.40
2019-02-24T02:18:37.394Z,4.37
2019-02-24T02:19:16.052Z,4.95
2019-02-24T02:19:54.767Z,5.33
2019-02-24T02:20:33.453Z,4.95
2019-02-24T02:21:12.310Z,5.37
2019-02-24T02:21:51.479Z,5.20
2019-02-24T02:22:31.445Z,5.17
2019-02-24T02:23:10.341Z,4.90
2019-02-24T02:23:49.104Z,5.22
2019-02-24T02:24:27.868Z,5.37
2019-02-24T02:25:06.915Z,4.95
2019-02-24T02:25:45.880Z,5.60
2019-02-24T02:26:25.372Z,5.67
2019-02-24T02:27:04.035Z,5.22
2019-02-24T02:27:42.652Z,5.87
2019-02-24T02:28:21.334Z,4.95
2019-02-24T02:29:00.100Z,4.78
2019-02-24T02:29:38.726Z,5.58
2019-02-24T02:30:17.575Z,5.42
2019-02-24T02:30:56.631Z,5.80
2019-02-24T02:31:35.673Z,5.20
2019-02-24T02:32:15.463Z,6.00
2019-02-24T02:32:56.022Z,4.90
2019-02-24T02:33:35.216Z,4.90
2019-02-24T02:34:15.568Z,4.72
2019-02-24T02:34:54.240Z,6.00
2019-02-24T02:35:32.965Z,5.10
2019-02-24T02:36:12.367Z,5.00
2019-02-24T02:36:52.266Z,4.65
2019-02-24T02:37:31.174Z,4.92
2019-02-24T02:38:09.907Z,5.50
2019-02-24T02:38:48.564Z,5.30
2019-02-24T02:39:27.469Z,4.70
2019-02-24T02:40:06.407Z,5.17
2019-02-24T02:40:45.572Z,5.28
2019-02-24T02:41:24.943Z,4.83
2019-02-24T02:42:03.846Z,5.42
2019-02-24T02:42:43.190Z,5.23
2019-02-24T02:43:22.630Z,5.37
2019-02-24T02:44:01.231Z,5.53
2019-02-24T02:44:39.971Z,5.17
2019-02-24T02:45:18.748Z,5.03
2019-02-24T02:45:57.630Z,5.45
2019-02-24T02:46:36.750Z,5.30
2019-02-24T02:47:15.805Z,5.12
2019-02-24T02:47:55.228Z,6.10
2019-02-24T02:48:34.489Z,5.50
2019-02-24T02:49:13.537Z,5.28
2019-02-24T02:49:53.105Z,5.60
2019-02-24T02:50:32.508Z,5.65
2019-02-24T02:51:11.695Z,5.45
2019-02-24T02:51:51.200Z,5.42
2019-02-24T02:52:29.959Z,6.00
2019-02-24T02:53:08.611Z,6.53
2019-02-24T02:53:47.973Z,5.60
2019-02-24T02:54:26.787Z,6.50
2019-02-24T02:55:05.882Z,5.95
2019-02-24T02:55:45.223Z,6.50
2019-02-24T02:56:24.305Z,6.05
2019-02-24T02:57:03.054Z,5.70
2019-02-24T02:57:41.804Z,6.78
2019-02-24T02:58:21.697Z,7.33
2019-02-24T02:59:00.568Z,6.67
2019-02-24T02:59:39.269Z,6.17
2019-02-24T03:00:36.965Z,6.42
2019-02-24T03:01:15.635Z,5.97
2019-02-24T03:01:54.451Z,6.80
2019-02-24T03:02:33.156Z,6.20
2019-02-24T03:03:11.783Z,6.58
2019-02-24T03:03:50.526Z,6.70
2019-02-24T03:04:29.266Z,5.62
2019-02-24T03:05:07.965Z,6.22
2019-02-24T03:05:56.707Z,6.03
2019-02-24T03:06:51.573Z,6.17
2019-02-24T03:07:46.226Z,6.62
2019-02-24T03:08:42.944Z,6.83
2019-02-24T03:09:21.689Z,5.85
2019-02-24T03:10:02.765Z,6.33
2019-02-24T03:10:40.614Z,6.47
2019-02-24T03:11:19.311Z,6.42
2019-02-24T03:11:57.988Z,5.90
2019-02-24T03:12:36.771Z,6.57
2019-02-24T03:13:15.501Z,5.92
2019-02-24T03:13:54.466Z,6.50
2019-02-24T03:14:33.555Z,7.05
2019-02-24T03:15:12.357Z,6.47
2019-02-24T03:15:51.304Z,7.20
2019-02-24T03:16:30.723Z,6.65
2019-02-24T03:17:10.301Z,7.58
2019-02-24T03:17:49.937Z,6.80
2019-02-24T03:18:28.785Z,7.37
2019-02-24T03:19:07.519Z,6.45
2019-02-24T03:19:46.181Z,7.55
2019-02-24T03:20:25.157Z,7.03
2019-02-24T03:21:03.914Z,7.20
2019-02-24T03:21:45.265Z,7.97
2019-02-24T03:22:24.117Z,6.87
2019-02-24T03:23:02.880Z,7.83
2019-02-24T03:23:41.947Z,8.20
2019-02-24T03:24:20.768Z,7.90
2019-02-24T03:24:59.713Z,7.77
2019-02-24T03:25:38.647Z,6.97
2019-02-24T03:26:17.685Z,7.47
2019-02-24T03:26:56.301Z,7.35
2019-02-24T03:27:36.235Z,6.83
2019-02-24T03:28:14.962Z,6.97
2019-02-24T03:28:53.625Z,8.15
2019-02-24T03:29:32.529Z,8.03
2019-02-24T03:30:11.397Z,7.10
2019-02-24T03:30:50.899Z,7.80
2019-02-24T03:31:32.338Z,7.55
2019-02-24T03:32:11.771Z,8.10
2019-02-24T03:32:50.538Z,7.15
2019-02-24T03:33:29.834Z,7.47
2019-02-24T03:34:08.792Z,8.20
2019-02-24T03:34:47.511Z,8.43
2019-02-24T03:35:26.869Z,8.00
2019-02-24T03:36:05.534Z,8.15
2019-02-24T03:36:45.341Z,7.50
2019-02-24T03:37:24.643Z,8.33
2019-02-24T03:38:03.369Z,7.93
2019-02-24T03:38:42.174Z,8.30
2019-02-24T03:39:20.931Z,7.73
2019-02-24T03:40:00.091Z,8.90
2019-02-24T03:40:39.113Z,7.97
2019-02-24T03:41:17.786Z,8.43
2019-02-24T03:41:56.515Z,8.70
2019-02-24T03:42:35.156Z,8.53
2019-02-24T03:43:14.520Z,8.23
2019-02-24T03:43:54.007Z,8.95
2019-02-24T03:44:32.728Z,8.93
2019-02-24T03:45:12.181Z,8.20
2019-02-24T03:45:52.658Z,8.50
2019-02-24T03:46:31.388Z,7.67
2019-02-24T03:47:10.622Z,7.43
2019-02-24T03:47:50.030Z,8.13
2019-02-24T03:48:28.815Z,8.63
2019-02-24T03:49:07.444Z,8.63
2019-02-24T03:49:46.086Z,8.30
2019-02-24T03:50:24.744Z,8.20
2019-02-24T03:51:03.561Z,7.90
2019-02-24T03:51:42.330Z,8.30
2019-02-24T03:52:21.542Z,8.23
2019-02-24T03:53:00.942Z,7.75
2019-02-24T03:53:40.244Z,8.90
2019-02-24T03:54:19.558Z,8.77
2019-02-24T03:54:58.330Z,8.65
2019-02-24T03:55:37.266Z,9.18
2019-02-24T03:56:15.955Z,8.57
2019-02-24T03:56:54.660Z,8.43
2019-02-24T03:57:33.356Z,8.57
2019-02-24T03:58:13.858Z,8.27
2019-02-24T03:58:53.135Z,9.10
2019-02-24T03:59:50.711Z,8.40
2019-02-24T04:00:29.368Z,8.70
2019-02-24T04:01:07.975Z,9.30
2019-02-24T04:01:46.793Z,9.60
2019-02-24T04:02:25.562Z,9.17
2019-02-24T04:03:04.349Z,9.27
2019-02-24T04:03:43.286Z,8.85
2019-02-24T04:04:22.698Z,9.13
2019-02-24T04:05:01.830Z,8.80
2019-02-24T04:05:41.226Z,7.62
2019-02-24T04:06:20.764Z,9.27
2019-02-24T04:07:00.060Z,8.97
2019-02-24T04:07:39.379Z,8.20
2019-02-24T04:08:18.690Z,9.47
2019-02-24T04:08:57.414Z,9.43
2019-02-24T04:09:36.147Z,8.73
2019-02-24T04:10:14.892Z,8.90
2019-02-24T04:10:54.139Z,9.30
2019-02-24T04:11:33.088Z,8.97
2019-02-24T04:12:12.272Z,8.73
2019-02-24T04:12:51.490Z,9.20
2019-02-24T04:13:30.255Z,8.10
2019-02-24T04:14:10.853Z,8.33
2019-02-24T04:14:50.187Z,9.03
2019-02-24T04:15:30.005Z,9.70
2019-02-24T04:16:09.592Z,8.70
2019-02-24T04:16:48.245Z,9.67
2019-02-24T04:17:26.969Z,10.43
2019-02-24T04:18:05.655Z,8.40
2019-02-24T04:18:44.339Z,8.63
2019-02-24T04:19:23.614Z,9.10
2019-02-24T04:20:02.810Z,8.73
2019-02-24T04:20:42.006Z,9.10
2019-02-24T04:21:21.255Z,8.80
2019-02-24T04:22:00.626Z,8.80
2019-02-24T04:22:39.393Z,9.20
2019-02-24T04:23:18.525Z,9.78
2019-02-24T04:23:57.264Z,9.40
2019-02-24T04:24:35.959Z,9.97
2019-02-24T04:25:15.007Z,8.93
2019-02-24T04:25:53.704Z,8.27
2019-02-24T04:26:33.013Z,9.03
2019-02-24T04:27:12.200Z,9.53
2019-02-24T04:27:50.913Z,9.23
2019-02-24T04:28:30.390Z,9.80
2019-02-24T04:29:09.124Z,9.05
2019-02-24T04:29:47.767Z,9.93
2019-02-24T04:30:26.814Z,9.60
2019-02-24T04:31:06.024Z,9.67
2019-02-24T04:31:45.403Z,9.70
2019-02-24T04:32:25.093Z,9.53
2019-02-24T04:33:03.756Z,9.60
2019-02-24T04:33:42.436Z,9.40
2019-02-24T04:34:21.403Z,8.53
2019-02-24T04:35:00.038Z,9.97
2019-02-24T04:35:38.775Z,9.70
2019-02-24T04:36:18.310Z,9.70
2019-02-24T04:36:57.028Z,9.00
2019-02-24T04:37:36.120Z,9.70
2019-02-24T04:38:16.070Z,9.33
2019-02-24T04:38:55.401Z,10.10
2019-02-24T04:39:34.561Z,9.57
2019-02-24T04:40:13.943Z,8.73
2019-02-24T04:40:53.428Z,9.60
2019-02-24T04:41:32.078Z,9.50
2019-02-24T04:42:10.723Z,8.67
2019-02-24T04:42:49.484Z,10.43
2019-02-24T04:43:28.157Z,9.43
2019-02-24T04:44:07.061Z,9.87
2019-02-24T04:44:46.224Z,8.60
2019-02-24T04:45:25.759Z,9.20
2019-02-24T04:46:05.112Z,9.77
2019-02-24T04:46:44.269Z,8.70
2019-02-24T04:47:23.651Z,9.30
2019-02-24T04:48:02.859Z,10.10
2019-02-24T04:48:41.529Z,9.40
2019-02-24T04:49:20.266Z,9.50
2019-02-24T04:49:59.016Z,9.90
2019-02-24T04:50:55.934Z,9.07
2019-02-24T04:51:34.919Z,9.20
2019-02-24T04:52:14.402Z,9.30
2019-02-24T04:52:53.064Z,9.80
2019-02-24T04:53:31.799Z,9.40
2019-02-24T04:54:10.393Z,8.73
2019-02-24T04:54:49.087Z,9.80
2019-02-24T04:55:27.768Z,9.63
2019-02-24T04:56:06.414Z,9.20
2019-02-24T04:56:45.192Z,9.77
2019-02-24T04:57:24.001Z,10.00
2019-02-24T04:58:02.707Z,9.90
2019-02-24T04:58:41.350Z,9.83
2019-02-24T04:59:20.143Z,9.73
2019-02-24T04:59:58.784Z,9.70
2019-02-24T05:00:37.581Z,9.83
2019-02-24T05:01:16.282Z,9.47
2019-02-24T05:01:54.922Z,10.10
2019-02-24T05:02:33.589Z,9.80
2019-02-24T05:03:12.315Z,10.27
2019-02-24T05:03:51.062Z,10.03
2019-02-24T05:04:29.784Z,10.07
2019-02-24T05:05:08.552Z,10.10
2019-02-24T05:05:47.261Z,10.07
2019-02-24T05:06:25.942Z,10.27
2019-02-24T05:07:05.159Z,10.03
2019-02-24T05:07:43.866Z,10.90
2019-02-24T05:08:22.473Z,10.53
2019-02-24T05:09:01.162Z,10.13
2019-02-24T05:09:39.959Z,9.37
2019-02-24T05:10:18.668Z,10.03
2019-02-24T05:10:57.558Z,10.40
2019-02-24T05:11:36.787Z,10.37
2019-02-24T05:12:15.468Z,9.87
2019-02-24T05:12:54.169Z,10.60
2019-02-24T05:13:33.054Z,10.30
2019-02-24T05:14:11.869Z,10.67
2019-02-24T05:14:50.514Z,10.60
2019-02-24T05:15:29.412Z,10.67
2019-02-24T05:16:08.322Z,10.60
2019-02-24T05:16:47.020Z,10.40
2019-02-24T05:17:25.843Z,10.33
2019-02-24T05:18:04.398Z,10.73
2019-02-24T05:18:43.084Z,11.10
2019-02-24T05:19:21.963Z,10.83
2019-02-24T05:20:00.676Z,10.07
2019-02-24T05:20:39.286Z,10.53
2019-02-24T05:21:18.095Z,11.20
2019-02-24T05:21:56.753Z,10.53
2019-02-24T05:22:35.524Z,10.93
2019-02-24T05:23:14.221Z,10.40
2019-02-24T05:23:52.960Z,10.37
2019-02-24T05:24:31.714Z,10.40
2019-02-24T05:25:10.422Z,9.70
2019-02-24T05:25:49.043Z,9.73
2019-02-24T05:26:28.302Z,9.90
2019-02-24T05:27:07.688Z,10.77
2019-02-24T05:27:47.085Z,10.07
2019-02-24T05:28:26.283Z,10.47
2019-02-24T05:29:04.995Z,9.73
2019-02-24T05:29:46.116Z,10.17
2019-02-24T05:30:24.856Z,10.57
2019-02-24T05:31:03.584Z,10.70
2019-02-24T05:31:43.581Z,10.10
2019-02-24T05:32:22.523Z,9.87
2019-02-24T05:33:01.384Z,10.10
2019-02-24T05:33:40.349Z,10.80
2019-02-24T05:34:19.397Z,11.10
2019-02-24T05:34:58.830Z,10.53
2019-02-24T05:35:38.359Z,10.73
2019-02-24T05:36:18.351Z,11.80
2019-02-24T05:36:57.074Z,10.30
2019-02-24T05:37:36.562Z,11.63
2019-02-24T05:38:15.233Z,11.37
2019-02-24T05:38:53.954Z,11.30
2019-02-24T05:39:32.618Z,11.50
2019-02-24T05:40:11.322Z,11.33
2019-02-24T05:40:50.336Z,11.87
2019-02-24T05:41:29.424Z,11.40
2019-02-24T05:42:08.716Z,11.97
2019-02-24T05:42:47.851Z,11.70
2019-02-24T05:43:27.460Z,12.13
2019-02-24T05:44:07.076Z,12.50
2019-02-24T05:44:46.207Z,12.63
2019-02-24T05:45:24.885Z,12.93
2019-02-24T05:46:03.649Z,12.57
2019-02-24T05:46:42.713Z,11.90
2019-02-24T05:47:21.455Z,11.90
2019-02-24T05:48:00.107Z,12.30
2019-02-24T05:48:38.895Z,12.43
2019-02-24T05:49:17.739Z,13.27
2019-02-24T05:49:56.655Z,12.77
2019-02-24T05:50:35.338Z,12.60
2019-02-24T05:51:14.074Z,12.60
2019-02-24T05:52:11.654Z,12.90
2019-02-24T05:52:50.684Z,12.47
2019-02-24T05:53:29.995Z,12.30
2019-02-24T05:54:09.197Z,13.53
2019-02-24T05:54:48.716Z,11.80
2019-02-24T05:55:27.920Z,12.77
2019-02-24T05:56:06.887Z,12.30
2019-02-24T05:56:46.142Z,11.65
2019-02-24T05:57:25.444Z,12.53
2019-02-24T05:58:04.096Z,13.13
2019-02-24T05:58:42.715Z,12.37
2019-02-24T05:59:21.351Z,11.37
2019-02-24T06:00:00.618Z,11.30
2019-02-24T06:00:39.813Z,12.00
2019-02-24T06:01:21.140Z,11.50
2019-02-24T06:01:59.983Z,11.38
2019-02-24T06:02:39.248Z,11.60
2019-02-24T06:03:18.729Z,12.83
2019-02-24T06:03:57.527Z,11.50
2019-02-24T06:04:36.206Z,11.03
2019-02-24T06:05:14.920Z,10.50
2019-02-24T06:05:53.982Z,11.17
2019-02-24T06:06:32.629Z,11.00
2019-02-24T06:07:11.367Z,10.85
2019-02-24T06:07:50.229Z,11.20
2019-02-24T06:08:28.962Z,10.77
2019-02-24T06:09:08.431Z,10.98
2019-02-24T06:09:47.146Z,10.63
2019-02-24T06:10:26.412Z,10.78
2019-02-24T06:11:05.279Z,11.23
2019-02-24T06:11:44.379Z,10.13
2019-02-24T06:12:22.994Z,10.38
2019-02-24T06:13:02.543Z,10.78
2019-02-24T06:13:41.749Z,10.48
2019-02-24T06:14:20.898Z,10.08
2019-02-24T06:14:59.780Z,10.08
2019-02-24T06:15:38.568Z,10.70
2019-02-24T06:16:17.441Z,10.20
2019-02-24T06:16:56.247Z,10.20
2019-02-24T06:17:35.114Z,9.80
2019-02-24T06:18:14.478Z,10.03
2019-02-24T06:18:53.767Z,10.77
2019-02-24T06:19:32.470Z,9.50
2019-02-24T06:20:11.292Z,11.20
2019-02-24T06:20:50.196Z,11.33
2019-02-24T06:21:29.558Z,11.67
2019-02-24T06:22:08.269Z,10.50
2019-02-24T06:22:46.948Z,10.03
2019-02-24T06:23:25.629Z,9.50
2019-02-24T06:24:04.418Z,10.20
2019-02-24T06:24:43.903Z,11.57
2019-02-24T06:25:23.127Z,10.67
2019-02-24T06:26:02.180Z,10.20
2019-02-24T06:26:40.843Z,10.80
2019-02-24T06:27:19.584Z,10.10
2019-02-24T06:27:58.305Z,9.93
2019-02-24T06:28:37.064Z,9.90
2019-02-24T06:29:18.241Z,10.70
2019-02-24T06:30:04.557Z,10.80
2019-02-24T06:30:39.170Z,9.80
2019-02-24T06:31:17.879Z,10.40
2019-02-24T06:31:56.652Z,11.37
2019-02-24T06:32:36.675Z,10.43
2019-02-24T06:33:15.393Z,10.27
2019-02-24T06:33:54.104Z,10.50
2019-02-24T06:34:33.985Z,9.83
2019-02-24T06:35:12.541Z,9.90
2019-02-24T06:35:51.255Z,10.00
2019-02-24T06:36:29.942Z,10.03
2019-02-24T06:37:08.591Z,11.13
2019-02-24T06:37:47.345Z,10.13
2019-02-24T06:38:26.472Z,10.40
2019-02-24T06:39:05.262Z,9.60
2019-02-24T06:39:43.975Z,10.20
2019-02-24T06:40:23.269Z,11.07
2019-02-24T06:41:01.874Z,10.50
2019-02-24T06:41:40.575Z,10.50
2019-02-24T06:42:19.248Z,9.30
2019-02-24T06:42:57.992Z,10.40
2019-02-24T06:43:36.736Z,11.63
2019-02-24T06:44:15.520Z,10.40
2019-02-24T06:44:54.173Z,10.77
2019-02-24T06:45:32.848Z,10.23
2019-02-24T06:46:11.554Z,11.57
2019-02-24T06:46:50.405Z,11.10
2019-02-24T06:47:29.091Z,11.83
2019-02-24T06:48:07.792Z,11.37
2019-02-24T06:48:46.497Z,11.75
2019-02-24T06:49:25.231Z,11.00
2019-02-24T06:50:03.854Z,11.10
2019-02-24T06:51:09.856Z,10.40
2019-02-24T06:51:48.579Z,10.40
2019-02-24T06:52:28.095Z,10.37
2019-02-24T06:53:06.962Z,11.10
2019-02-24T06:53:45.582Z,12.00
2019-02-24T06:54:24.363Z,11.77
2019-02-24T06:55:04.315Z,13.20
2019-02-24T06:55:43.008Z,13.10
2019-02-24T06:56:22.246Z,12.37
2019-02-24T06:57:01.038Z,13.23
2019-02-24T06:57:39.645Z,11.87
2019-02-24T06:58:18.559Z,11.90
2019-02-24T06:58:57.968Z,13.30
2019-02-24T06:59:37.030Z,12.37
2019-02-24T07:00:16.128Z,13.40
2019-02-24T07:00:54.850Z,12.43
2019-02-24T07:01:33.639Z,12.77
2019-02-24T07:02:12.306Z,12.40
2019-02-24T07:02:51.706Z,13.30
2019-02-24T07:03:30.411Z,12.83
2019-02-24T07:04:09.304Z,12.83
2019-02-24T07:04:48.331Z,12.53
2019-02-24T07:05:27.455Z,12.50
2019-02-24T07:06:06.541Z,12.60
2019-02-24T07:06:45.818Z,11.30
2019-02-24T07:07:25.780Z,11.80
2019-02-24T07:08:04.516Z,12.13
2019-02-24T07:08:43.199Z,11.30
2019-02-24T07:09:22.387Z,12.00
2019-02-24T07:10:01.069Z,11.77
2019-02-24T07:10:39.678Z,11.70
2019-02-24T07:11:18.707Z,11.93
2019-02-24T07:11:58.041Z,11.80
2019-02-24T07:12:37.315Z,12.40
2019-02-24T07:13:16.471Z,10.93
2019-02-24T07:13:55.222Z,11.50
2019-02-24T07:14:52.579Z,11.73
2019-02-24T07:15:32.615Z,11.70
2019-02-24T07:16:11.345Z,12.50
2019-02-24T07:16:50.236Z,11.37
2019-02-24T07:17:29.414Z,11.40
2019-02-24T07:18:08.585Z,11.13
2019-02-24T07:18:47.765Z,11.10
2019-02-24T07:19:26.351Z,11.40
2019-02-24T07:20:05.084Z,12.07
2019-02-24T07:20:43.807Z,11.90
2019-02-24T07:21:22.907Z,11.47
2019-02-24T07:22:01.573Z,11.17
2019-02-24T07:22:40.343Z,11.47
2019-02-24T07:23:19.538Z,11.00
2019-02-24T07:23:59.036Z,11.17
2019-02-24T07:24:38.330Z,12.50
2019-02-24T07:25:17.037Z,11.73
2019-02-24T07:25:56.448Z,11.27
2019-02-24T07:26:35.740Z,12.20
2019-02-24T07:27:14.387Z,10.50
2019-02-24T07:27:53.633Z,11.97
2019-02-24T07:28:32.809Z,11.83
2019-02-24T07:29:11.458Z,11.40
2019-02-24T07:30:08.928Z,10.90
2019-02-24T07:30:48.208Z,11.40
2019-02-24T07:31:26.774Z,10.83
2019-02-24T07:32:05.477Z,10.60
2019-02-24T07:32:44.225Z,11.30
2019-02-24T07:33:23.423Z,10.67
2019-02-24T07:34:02.154Z,10.73
2019-02-24T07:34:41.041Z,10.80
2019-02-24T07:35:20.206Z,10.33
2019-02-24T07:35:59.954Z,11.73
2019-02-24T07:36:39.133Z,10.97
2019-02-24T07:37:18.144Z,11.70
2019-02-24T07:37:57.724Z,11.40
2019-02-24T07:38:36.399Z,11.40
2019-02-24T07:39:15.127Z,10.70
2019-02-24T07:39:53.866Z,11.30
2019-02-24T07:40:32.644Z,11.80
2019-02-24T07:41:11.518Z,11.10
2019-02-24T07:41:50.479Z,11.17
2019-02-24T07:42:29.923Z,11.40
2019-02-24T07:43:09.064Z,9.90
2019-02-24T07:43:48.190Z,10.30
2019-02-24T07:44:27.319Z,10.70
2019-02-24T07:45:06.866Z,11.20
2019-02-24T07:45:46.149Z,10.13
2019-02-24T07:46:25.376Z,10.33
2019-02-24T07:47:04.026Z,10.63
2019-02-24T07:47:42.666Z,11.20
2019-02-24T07:48:21.336Z,10.03
2019-02-24T07:49:00.907Z,11.17
2019-02-24T07:49:40.280Z,10.70
2019-02-24T07:50:19.769Z,11.57
2019-02-24T07:50:59.341Z,10.70
2019-02-24T07:51:38.728Z,10.53
2019-02-24T07:52:17.700Z,10.40
2019-02-24T07:52:57.069Z,10.50
2019-02-24T07:53:36.032Z,10.23
2019-02-24T07:54:15.192Z,10.90
2019-02-24T07:54:53.841Z,10.90
2019-02-24T07:55:32.423Z,10.93
2019-02-24T07:56:11.549Z,10.20
2019-02-24T07:56:50.744Z,10.30
2019-02-24T07:57:29.443Z,10.23
2019-02-24T07:58:08.575Z,10.37
2019-02-24T07:58:47.710Z,9.50
2019-02-24T07:59:26.631Z,10.03
2019-02-24T08:00:05.337Z,10.03
2019-02-24T08:00:44.076Z,10.93
2019-02-24T08:01:22.980Z,9.80
2019-02-24T08:02:01.796Z,10.70
2019-02-24T08:02:41.026Z,11.33
2019-02-24T08:03:19.617Z,9.47
2019-02-24T08:03:58.279Z,10.80
2019-02-24T08:04:37.246Z,10.37
2019-02-24T08:05:15.984Z,10.97
2019-02-24T08:05:54.659Z,9.70
2019-02-24T08:06:34.247Z,10.43
2019-02-24T08:07:13.402Z,11.20
2019-02-24T08:07:52.512Z,9.73
2019-02-24T08:08:31.777Z,10.00
2019-02-24T08:09:11.223Z,10.00
2019-02-24T08:09:50.030Z,10.70
2019-02-24T08:10:29.334Z,10.43
2019-02-24T08:11:08.104Z,10.80
2019-02-24T08:11:46.750Z,10.90
2019-02-24T08:12:25.435Z,9.90
2019-02-24T08:13:04.569Z,10.13
2019-02-24T08:13:44.089Z,10.50
2019-02-24T08:14:23.345Z,10.00
2019-02-24T08:15:02.487Z,9.93
2019-02-24T08:15:41.921Z,11.00
2019-02-24T08:16:21.314Z,10.60
2019-02-24T08:17:00.646Z,10.00
2019-02-24T08:17:40.129Z,9.37
2019-02-24T08:18:19.393Z,9.70
2019-02-24T08:18:58.841Z,10.03
2019-02-24T08:19:37.473Z,10.23
2019-02-24T08:20:16.150Z,10.40
2019-02-24T08:20:55.104Z,9.67
2019-02-24T08:21:33.856Z,10.57
2019-02-24T08:22:13.200Z,10.40
2019-02-24T08:22:52.329Z,9.70
2019-02-24T08:23:30.870Z,9.77
2019-02-24T08:24:10.153Z,9.90
2019-02-24T08:24:49.445Z,10.33
2019-02-24T08:25:28.870Z,9.63
2019-02-24T08:26:07.506Z,10.40
2019-02-24T08:26:46.178Z,10.20
2019-02-24T08:27:24.834Z,9.03
2019-02-24T08:28:03.511Z,10.37
2019-02-24T08:28:43.143Z,10.13
2019-02-24T08:29:22.389Z,10.67
2019-02-24T08:30:02.603Z,10.03
2019-02-24T08:30:42.126Z,9.80
2019-02-24T08:31:21.451Z,9.60
2019-02-24T08:32:00.103Z,10.47
2019-02-24T08:32:39.471Z,10.20
2019-02-24T08:33:18.503Z,10.30
2019-02-24T08:33:57.261Z,10.00
2019-02-24T08:34:36.216Z,10.83
2019-02-24T08:35:15.571Z,10.20
2019-02-24T08:35:54.251Z,10.33
2019-02-24T08:36:32.913Z,11.00